Time,TemperatureF,DewpointF,PressureIn,WindDirection,WindDirectionDegrees,WindSpeedMPH,WindSpeedGustMPH,Humidity,HourlyPrecipIn,Conditions,Clouds,dailyrainin,SoftwareType,DateUTC
2013-05-22 00:00:00,66.8,61.5,29.88,NE,49,1.0,1.0,83,1.21,,,0.02,Wunderground v.1.15,2013-05-22 04:00:00,
2013-05-22 00:01:00,66.8,61.8,29.88,NNE,19,1.0,1.0,84,1.85,,,0.04,Wunderground v.1.15,2013-05-22 04:01:00,
2013-05-22 00:02:00,66.8,61.8,29.88,NNE,17,1.0,1.0,84,1.04,,,0.06,Wunderground v.1.15,2013-05-22 04:02:00,
2013-05-22 00:03:00,66.7,62.0,29.88,West,273,1.0,5.0,85,1.10,,,0.08,Wunderground v.1.15,2013-05-22 04:03:00,
2013-05-22 00:07:00,66.4,62.1,29.88,SSW,194,1.0,5.0,86,0.17,,,0.09,Wunderground v.1.15,2013-05-22 04:07:00,
2013-05-22 00:08:00,66.3,62.0,29.88,SSW,194,1.0,5.0,86,0.17,,,0.10,Wunderground v.1.15,2013-05-22 04:08:00,
2013-05-22 00:13:00,65.8,61.8,29.87,SE,138,1.0,4.0,87,0.10,,,0.11,Wunderground v.1.15,2013-05-22 04:13:00,
2013-05-22 00:19:00,65.3,62.0,29.87,South,183,1.0,4.0,89,0.10,,,0.11,Wunderground v.1.15,2013-05-22 04:19:00,
2013-05-22 00:25:00,65.0,62.0,29.88,SE,127,1.0,1.0,90,0.05,,,0.11,Wunderground v.1.15,2013-05-22 04:25:00,
2013-05-22 00:31:00,64.7,62.0,29.88,SE,128,0.0,1.0,91,0.25,,,0.18,Wunderground v.1.15,2013-05-22 04:31:00,
2013-05-22 00:36:00,64.1,61.4,29.92,North,5,4.0,12.0,91,0.31,,,0.20,Wunderground v.1.15,2013-05-22 04:36:00,
2013-05-22 00:42:00,63.7,61.3,29.91,NNE,21,8.0,11.0,92,1.77,,,0.26,Wunderground v.1.15,2013-05-22 04:42:00,
2013-05-22 00:48:00,63.3,61.2,29.91,West,279,8.0,11.0,93,0.75,,,0.42,Wunderground v.1.15,2013-05-22 04:48:00,
2013-05-22 00:54:00,63.2,61.1,29.91,WSW,239,5.0,7.0,93,1.88,,,0.51,Wunderground v.1.15,2013-05-22 04:54:00,
2013-05-22 01:00:00,63.2,61.4,29.89,WSW,239,2.0,2.0,94,0.26,,,0.56,Wunderground v.1.15,2013-05-22 05:00:00,
2013-05-22 01:06:00,63.2,61.4,29.90,WSW,239,0.0,23.0,94,0.35,,,0.59,Wunderground v.1.15,2013-05-22 05:06:00,
2013-05-22 01:12:00,63.4,61.6,29.90,West,277,2.0,23.0,94,0.20,,,0.61,Wunderground v.1.15,2013-05-22 05:12:00,
2013-05-22 01:18:00,63.3,61.5,29.91,West,272,4.0,23.0,94,0.17,,,0.63,Wunderground v.1.15,2013-05-22 05:18:00,
2013-05-22 01:23:00,63.3,61.5,29.91,West,261,3.0,23.0,94,0.25,,,0.65,Wunderground v.1.15,2013-05-22 05:23:00,
2013-05-22 01:39:00,63.4,61.6,29.89,West,269,1.0,23.0,94,0.11,,,0.69,Wunderground v.1.15,2013-05-22 05:39:00,
2013-05-22 01:45:00,63.4,61.9,29.88,West,269,0.0,23.0,95,0.16,,,0.71,Wunderground v.1.15,2013-05-22 05:45:00,
2013-05-22 01:51:00,63.5,62.0,29.87,West,269,0.0,23.0,95,0.13,,,0.72,Wunderground v.1.15,2013-05-22 05:51:00,
2013-05-22 01:57:00,63.4,61.9,29.86,West,269,0.0,23.0,95,0.10,,,0.73,Wunderground v.1.15,2013-05-22 05:57:00,
2013-05-22 02:02:00,63.5,62.0,29.86,West,269,0.0,23.0,95,0.13,,,0.74,Wunderground v.1.15,2013-05-22 06:02:00,
2013-05-22 02:08:00,63.5,62.0,29.86,West,269,0.0,23.0,95,0.20,,,0.76,Wunderground v.1.15,2013-05-22 06:08:00,
2013-05-22 02:14:00,63.5,62.0,29.86,West,269,0.0,23.0,95,0.09,,,0.77,Wunderground v.1.15,2013-05-22 06:14:00,
2013-05-22 02:20:00,63.5,62.0,29.86,West,269,0.0,23.0,95,0.08,,,0.77,Wunderground v.1.15,2013-05-22 06:20:00,
2013-05-22 02:26:00,63.6,62.1,29.85,West,269,0.0,23.0,95,0.04,,,0.77,Wunderground v.1.15,2013-05-22 06:26:00,
2013-05-22 02:32:00,63.5,62.0,29.86,West,269,0.0,23.0,95,0.00,,,0.78,Wunderground v.1.15,2013-05-22 06:32:00,
2013-05-22 02:38:00,63.6,62.1,29.85,West,269,0.0,23.0,95,0.09,,,0.79,Wunderground v.1.15,2013-05-22 06:38:00,
2013-05-22 02:43:00,63.6,62.1,29.86,West,269,0.0,23.0,95,0.09,,,0.79,Wunderground v.1.15,2013-05-22 06:43:00,
2013-05-22 02:49:00,63.6,62.4,29.85,West,269,0.0,23.0,96,0.09,,,0.80,Wunderground v.1.15,2013-05-22 06:49:00,
2013-05-22 02:55:00,63.7,62.5,29.85,West,259,1.0,23.0,96,0.05,,,0.80,Wunderground v.1.15,2013-05-22 06:55:00,
2013-05-22 03:01:00,63.8,62.3,29.84,WSW,240,1.0,23.0,95,0.04,,,0.81,Wunderground v.1.15,2013-05-22 07:01:00,
2013-05-22 03:06:00,63.7,62.2,29.84,WSW,240,0.0,23.0,95,0.04,,,0.81,Wunderground v.1.15,2013-05-22 07:06:00,
2013-05-22 03:12:00,63.8,62.3,29.85,WSW,237,1.0,23.0,95,0.05,,,0.82,Wunderground v.1.15,2013-05-22 07:12:00,
2013-05-22 03:18:00,64.0,62.5,29.85,WSW,242,2.0,23.0,95,0.05,,,0.82,Wunderground v.1.15,2013-05-22 07:18:00,
2013-05-22 03:24:00,64.1,62.6,29.85,WSW,242,1.0,23.0,95,0.05,,,0.82,Wunderground v.1.15,2013-05-22 07:24:00,
2013-05-22 03:30:00,64.0,62.2,29.85,WSW,242,0.0,23.0,94,0.04,,,0.83,Wunderground v.1.15,2013-05-22 07:30:00,
2013-05-22 03:36:00,63.9,62.1,29.84,East,86,0.0,23.0,94,0.04,,,0.83,Wunderground v.1.15,2013-05-22 07:36:00,
2013-05-22 03:42:00,63.8,62.0,29.83,East,97,1.0,23.0,94,0.06,,,0.84,Wunderground v.1.15,2013-05-22 07:42:00,
2013-05-22 03:47:00,63.9,62.4,29.84,WNW,284,2.0,23.0,95,0.06,,,0.84,Wunderground v.1.15,2013-05-22 07:47:00,
2013-05-22 03:53:00,64.3,62.5,29.85,WNW,300,3.0,23.0,94,0.04,,,0.84,Wunderground v.1.15,2013-05-22 07:53:00,
2013-05-22 03:58:00,64.7,62.9,29.86,WNW,292,3.0,23.0,94,0.00,,,0.84,Wunderground v.1.15,2013-05-22 07:58:00,
2013-05-22 04:04:00,64.7,62.6,29.88,NW,324,3.0,23.0,93,0.00,,,0.85,Wunderground v.1.15,2013-05-22 08:04:00,
2013-05-22 04:10:00,64.5,62.4,29.88,NW,326,2.0,23.0,93,0.00,,,0.85,Wunderground v.1.15,2013-05-22 08:10:00,
2013-05-22 04:15:00,64.4,62.6,29.88,WNW,296,1.0,23.0,94,0.00,,,0.85,Wunderground v.1.15,2013-05-22 08:15:00,
2013-05-22 04:21:00,64.4,62.6,29.88,WNW,295,2.0,23.0,94,0.00,,,0.85,Wunderground v.1.15,2013-05-22 08:21:00,
2013-05-22 04:27:00,64.3,62.5,29.88,WNW,295,1.0,23.0,94,0.13,,,0.87,Wunderground v.1.15,2013-05-22 08:27:00,
2013-05-22 04:33:00,64.2,62.4,29.87,WNW,295,0.0,23.0,94,0.88,,,0.91,Wunderground v.1.15,2013-05-22 08:33:00,
2013-05-22 04:38:00,64.2,62.4,29.88,WNW,295,0.0,23.0,94,0.27,,,0.94,Wunderground v.1.15,2013-05-22 08:38:00,
2013-05-22 04:44:00,64.2,62.7,29.88,WNW,295,0.0,23.0,95,0.50,,,0.99,Wunderground v.1.15,2013-05-22 08:44:00,
2013-05-22 04:50:00,64.2,62.7,29.87,SW,226,1.0,23.0,95,0.26,,,1.04,Wunderground v.1.15,2013-05-22 08:50:00,
2013-05-22 04:56:00,64.2,62.7,29.86,SSW,198,2.0,23.0,95,0.07,,,1.04,Wunderground v.1.15,2013-05-22 08:56:00,
2013-05-22 05:01:00,64.2,62.7,29.87,SSW,198,0.0,23.0,95,0.04,,,1.04,Wunderground v.1.15,2013-05-22 09:01:00,
2013-05-22 05:07:00,64.1,62.6,29.87,SW,225,1.0,23.0,95,0.00,,,1.04,Wunderground v.1.15,2013-05-22 09:07:00,
2013-05-22 05:13:00,64.2,62.7,29.86,SSW,193,1.0,23.0,95,0.00,,,1.04,Wunderground v.1.15,2013-05-22 09:13:00,
2013-05-22 05:19:00,64.1,62.6,29.86,South,182,1.0,23.0,95,0.00,,,1.04,Wunderground v.1.15,2013-05-22 09:19:00,
2013-05-22 05:25:00,64.2,62.4,29.86,SSW,198,1.0,23.0,94,0.00,,,1.04,Wunderground v.1.15,2013-05-22 09:25:00,
2013-05-22 05:31:00,64.3,62.5,29.86,West,274,2.0,7.0,94,0.00,,,1.04,Wunderground v.1.15,2013-05-22 09:31:00,
2013-05-22 05:37:00,64.8,62.7,29.87,SW,225,6.0,23.0,93,0.00,,,1.04,Wunderground v.1.15,2013-05-22 09:37:00,
2013-05-22 05:42:00,65.0,62.6,29.87,SW,217,8.0,23.0,92,0.00,,,1.04,Wunderground v.1.15,2013-05-22 09:42:00,
2013-05-22 05:48:00,64.9,62.5,29.87,WSW,246,8.0,23.0,92,0.00,,,1.04,Wunderground v.1.15,2013-05-22 09:48:00,
2013-05-22 05:54:00,64.4,62.0,29.87,SW,229,10.0,23.0,92,0.00,,,1.04,Wunderground v.1.15,2013-05-22 09:54:00,
2013-05-22 06:00:00,64.1,62.0,29.87,SW,234,12.0,23.0,93,0.00,,,1.04,Wunderground v.1.15,2013-05-22 10:00:00,
2013-05-22 06:05:00,64.0,61.9,29.87,SW,215,13.0,23.0,93,0.00,,,1.04,Wunderground v.1.15,2013-05-22 10:05:00,
2013-05-22 06:11:00,64.0,61.9,29.86,WSW,242,12.0,23.0,93,0.00,,,1.04,Wunderground v.1.15,2013-05-22 10:11:00,
2013-05-22 06:17:00,64.0,61.9,29.86,SW,225,11.0,23.0,93,0.00,,,1.04,Wunderground v.1.15,2013-05-22 10:17:00,
2013-05-22 06:23:00,64.0,61.9,29.86,SW,221,9.0,23.0,93,0.00,,,1.04,Wunderground v.1.15,2013-05-22 10:23:00,
2013-05-22 06:29:00,64.0,61.9,29.86,SW,219,11.0,23.0,93,0.00,,,1.04,Wunderground v.1.15,2013-05-22 10:29:00,
2013-05-22 06:35:00,63.9,61.8,29.86,SW,224,11.0,23.0,93,0.00,,,1.04,Wunderground v.1.15,2013-05-22 10:35:00,
2013-05-22 06:41:00,63.9,61.8,29.87,SW,229,9.0,23.0,93,0.00,,,1.04,Wunderground v.1.15,2013-05-22 10:41:00,
2013-05-22 06:46:00,64.0,61.9,29.87,SSW,203,9.0,23.0,93,0.00,,,1.04,Wunderground v.1.15,2013-05-22 10:46:00,
2013-05-22 06:52:00,64.0,61.9,29.87,WSW,247,9.0,23.0,93,0.00,,,1.04,Wunderground v.1.15,2013-05-22 10:52:00,
2013-05-22 06:58:00,64.2,62.1,29.87,SW,219,9.0,23.0,93,0.00,,,1.04,Wunderground v.1.15,2013-05-22 10:58:00,
2013-05-22 07:04:00,64.5,62.4,29.88,SSW,202,6.0,23.0,93,0.00,,,1.04,Wunderground v.1.15,2013-05-22 11:04:00,
2013-05-22 07:09:00,64.8,62.4,29.87,SW,226,7.0,23.0,92,0.00,,,1.04,Wunderground v.1.15,2013-05-22 11:09:00,
2013-05-22 07:15:00,65.1,62.7,29.88,South,169,7.0,23.0,92,0.00,,,1.04,Wunderground v.1.15,2013-05-22 11:15:00,
2013-05-22 07:21:00,65.2,62.8,29.88,SSW,202,5.0,23.0,92,0.00,,,1.04,Wunderground v.1.15,2013-05-22 11:21:00,
2013-05-22 07:27:00,65.3,62.9,29.87,South,171,6.0,23.0,92,0.00,,,1.04,Wunderground v.1.15,2013-05-22 11:27:00,
2013-05-22 07:33:00,65.7,63.0,29.87,SSE,158,5.0,23.0,91,0.00,,,1.04,Wunderground v.1.15,2013-05-22 11:33:00,
2013-05-22 07:39:00,65.8,63.1,29.87,SW,219,7.0,23.0,91,0.00,,,1.04,Wunderground v.1.15,2013-05-22 11:39:00,
2013-05-22 07:45:00,66.2,63.8,29.87,SSW,207,7.0,23.0,92,0.00,,,1.04,Wunderground v.1.15,2013-05-22 11:45:00,
2013-05-22 07:50:00,66.8,63.8,29.87,WSW,249,6.0,23.0,90,0.00,,,1.04,Wunderground v.1.15,2013-05-22 11:50:00,
2013-05-22 07:56:00,67.3,63.9,29.87,SSE,153,5.0,23.0,89,0.00,,,1.04,Wunderground v.1.15,2013-05-22 11:56:00,
2013-05-22 08:02:00,67.3,63.6,29.87,SSE,165,6.0,23.0,88,0.00,,,1.04,Wunderground v.1.15,2013-05-22 12:02:00,
2013-05-22 08:08:00,67.5,63.5,29.87,SW,224,8.0,23.0,87,0.00,,,1.04,Wunderground v.1.15,2013-05-22 12:08:00,
2013-05-22 08:13:00,67.9,63.9,29.87,SSW,207,8.0,23.0,87,0.00,,,1.04,Wunderground v.1.15,2013-05-22 12:13:00,
2013-05-22 08:19:00,68.2,63.9,29.87,WSW,245,9.0,23.0,86,0.00,,,1.04,Wunderground v.1.15,2013-05-22 12:19:00,
2013-05-22 08:25:00,68.4,64.0,29.87,SW,232,10.0,23.0,86,0.00,,,1.04,Wunderground v.1.15,2013-05-22 12:25:00,
2013-05-22 08:30:00,68.9,64.9,29.87,SSW,204,8.0,23.0,87,0.00,,,1.04,Wunderground v.1.15,2013-05-22 12:30:00,
2013-05-22 08:36:00,69.4,65.0,29.87,SW,218,6.0,23.0,86,0.00,,,1.04,Wunderground v.1.15,2013-05-22 12:36:00,
2013-05-22 08:42:00,69.9,65.5,29.87,SW,223,5.0,23.0,86,0.00,,,1.04,Wunderground v.1.15,2013-05-22 12:42:00,
2013-05-22 08:47:00,70.5,66.1,29.87,SW,220,5.0,23.0,86,0.00,,,1.04,Wunderground v.1.15,2013-05-22 12:47:00,
2013-05-22 08:52:00,70.9,65.8,29.88,WSW,244,6.0,23.0,84,0.00,,,1.04,Wunderground v.1.15,2013-05-22 12:52:00,
2013-05-22 08:57:00,71.1,66.0,29.88,SW,227,6.0,23.0,84,0.00,,,1.04,Wunderground v.1.15,2013-05-22 12:57:00,
2013-05-22 09:03:00,71.1,66.0,29.87,SSW,210,6.0,23.0,84,0.00,,,1.04,Wunderground v.1.15,2013-05-22 13:03:00,
2013-05-22 09:09:00,71.1,66.4,29.87,SW,220,6.0,23.0,85,0.00,,,1.04,Wunderground v.1.15,2013-05-22 13:09:00,
2013-05-22 09:15:00,71.9,66.5,29.87,SW,221,5.0,23.0,83,0.00,,,1.04,Wunderground v.1.15,2013-05-22 13:15:00,
2013-05-22 09:21:00,72.1,66.6,29.86,SW,219,7.0,23.0,83,0.00,,,1.04,Wunderground v.1.15,2013-05-22 13:21:00,
2013-05-22 09:26:00,72.6,67.5,29.86,SW,219,7.0,23.0,84,0.00,,,1.04,Wunderground v.1.15,2013-05-22 13:26:00,
2013-05-22 09:32:00,73.4,67.6,29.87,SW,225,6.0,23.0,82,0.00,,,1.04,Wunderground v.1.15,2013-05-22 13:32:00,
2013-05-22 09:38:00,73.4,67.6,29.87,SW,221,8.0,23.0,82,0.00,,,1.04,Wunderground v.1.15,2013-05-22 13:38:00,
2013-05-22 09:44:00,72.8,67.0,29.87,SW,227,9.0,23.0,82,0.00,,,1.04,Wunderground v.1.15,2013-05-22 13:44:00,
2013-05-22 09:50:00,72.2,66.7,29.86,SW,227,9.0,23.0,83,0.00,,,1.04,Wunderground v.1.15,2013-05-22 13:50:00,
2013-05-22 09:55:00,71.7,66.6,29.86,WSW,240,10.0,23.0,84,0.00,,,1.04,Wunderground v.1.15,2013-05-22 13:55:00,
2013-05-22 10:00:00,71.2,66.1,29.86,SSW,202,11.0,23.0,84,0.00,,,1.04,Wunderground v.1.15,2013-05-22 14:00:00,
2013-05-22 10:06:00,70.6,66.2,29.86,SW,236,13.0,23.0,86,0.00,,,1.04,Wunderground v.1.15,2013-05-22 14:06:00,
2013-05-22 10:12:00,70.8,66.4,29.86,South,173,12.0,23.0,86,0.00,,,1.04,Wunderground v.1.15,2013-05-22 14:12:00,
2013-05-22 10:17:00,71.2,66.8,29.86,SSW,204,9.0,23.0,86,0.00,,,1.04,Wunderground v.1.15,2013-05-22 14:17:00,
2013-05-22 10:23:00,71.7,67.3,29.86,SSE,164,6.0,23.0,86,0.00,,,0.00,Wunderground v.1.15,2013-05-22 14:23:00,
2013-05-22 10:28:00,72.6,67.8,29.87,South,169,3.0,23.0,85,0.00,,,0.00,Wunderground v.1.15,2013-05-22 14:28:00,
2013-05-22 10:34:00,73.8,68.3,29.87,NE,38,1.0,23.0,83,0.00,,,0.00,Wunderground v.1.15,2013-05-22 14:34:00,
2013-05-22 10:40:00,74.7,68.8,29.87,South,191,1.0,23.0,82,0.00,,,0.00,Wunderground v.1.15,2013-05-22 14:40:00,
2013-05-22 10:46:00,75.1,68.9,29.86,South,182,3.0,23.0,81,0.00,,,0.00,Wunderground v.1.15,2013-05-22 14:46:00,
2013-05-22 10:52:00,75.7,69.1,29.86,South,180,3.0,23.0,80,0.00,,,0.00,Wunderground v.1.15,2013-05-22 14:52:00,
2013-05-22 10:58:00,75.9,69.3,29.86,South,178,3.0,23.0,80,0.00,,,0.00,Wunderground v.1.15,2013-05-22 14:58:00,
2013-05-22 11:03:00,76.5,69.9,29.86,SE,140,2.0,23.0,80,0.00,,,0.00,Wunderground v.1.15,2013-05-22 15:03:00,
2013-05-22 11:09:00,77.6,69.8,29.86,West,263,1.0,23.0,77,0.00,,,0.00,Wunderground v.1.15,2013-05-22 15:09:00,
2013-05-22 11:15:00,78.1,69.9,29.86,SW,215,2.0,23.0,76,0.00,,,0.00,Wunderground v.1.15,2013-05-22 15:15:00,
2013-05-22 11:21:00,78.0,69.8,29.86,SW,218,3.0,23.0,76,0.00,,,0.00,Wunderground v.1.15,2013-05-22 15:21:00,
2013-05-22 11:26:00,78.7,69.7,29.86,SW,225,3.0,23.0,74,0.00,,,0.00,Wunderground v.1.15,2013-05-22 15:26:00,
2013-05-22 11:31:00,78.6,70.0,29.86,West,260,6.0,23.0,75,0.00,,,0.00,Wunderground v.1.15,2013-05-22 15:31:00,
2013-05-22 11:36:00,78.7,70.5,29.86,SW,218,7.0,23.0,76,0.00,,,0.00,Wunderground v.1.15,2013-05-22 15:36:00,
2013-05-22 11:42:00,79.4,70.4,29.86,SW,221,6.0,23.0,74,0.00,,,0.00,Wunderground v.1.15,2013-05-22 15:42:00,
2013-05-22 11:48:00,79.7,70.3,29.86,SSW,201,6.0,23.0,73,0.00,,,0.00,Wunderground v.1.15,2013-05-22 15:48:00,
2013-05-22 11:53:00,79.9,70.5,29.86,SW,232,6.0,23.0,73,0.00,,,0.00,Wunderground v.1.15,2013-05-22 15:53:00,
2013-05-22 11:59:00,79.5,70.5,29.86,WSW,244,6.0,23.0,74,0.00,,,0.00,Wunderground v.1.15,2013-05-22 15:59:00,
2013-05-22 12:05:00,79.6,70.2,29.86,South,171,6.0,23.0,73,0.00,,,0.00,Wunderground v.1.15,2013-05-22 16:05:00,
2013-05-22 12:11:00,79.8,70.4,29.86,SSW,200,6.0,23.0,73,0.00,,,0.00,Wunderground v.1.15,2013-05-22 16:11:00,
2013-05-22 12:16:00,79.5,70.5,29.86,SSW,200,7.0,23.0,74,0.00,,,0.00,Wunderground v.1.15,2013-05-22 16:16:00,
2013-05-22 12:22:00,79.2,70.6,29.86,SSW,197,7.0,23.0,75,0.00,,,0.00,Wunderground v.1.15,2013-05-22 16:22:00,
2013-05-22 12:28:00,78.8,70.2,29.85,SW,214,6.0,23.0,75,0.00,,,0.00,Wunderground v.1.15,2013-05-22 16:28:00,
2013-05-22 12:34:00,79.4,70.4,29.85,SSE,159,4.0,23.0,74,0.00,,,0.00,Wunderground v.1.15,2013-05-22 16:34:00,
2013-05-22 12:39:00,79.7,70.7,29.85,SW,221,5.0,23.0,74,0.00,,,0.00,Wunderground v.1.15,2013-05-22 16:39:00,
2013-05-22 12:45:00,79.6,70.6,29.84,South,184,7.0,23.0,74,0.00,,,0.00,Wunderground v.1.15,2013-05-22 16:45:00,
2013-05-22 12:51:00,79.2,70.6,29.84,SSE,157,6.0,7.0,75,0.00,,,0.00,Wunderground v.1.15,2013-05-22 16:51:00,
2013-05-22 12:56:00,78.9,70.7,29.83,SW,221,6.0,23.0,76,0.00,,,0.00,Wunderground v.1.15,2013-05-22 16:56:00,
2013-05-22 13:02:00,79.1,70.9,29.83,SSW,195,4.0,23.0,76,0.00,,,0.00,Wunderground v.1.15,2013-05-22 17:02:00,
2013-05-22 13:08:00,79.6,71.0,29.82,South,169,3.0,23.0,75,0.00,,,0.00,Wunderground v.1.15,2013-05-22 17:08:00,
2013-05-22 13:14:00,80.2,70.4,29.83,South,174,5.0,23.0,72,0.00,,,0.00,Wunderground v.1.15,2013-05-22 17:14:00,
2013-05-22 13:19:00,79.4,70.4,29.82,South,191,7.0,23.0,74,0.00,,,0.00,Wunderground v.1.15,2013-05-22 17:19:00,
2013-05-22 13:25:00,78.7,70.1,29.82,SSW,209,6.0,23.0,75,0.00,,,0.00,Wunderground v.1.15,2013-05-22 17:25:00,
2013-05-22 13:31:00,78.9,70.3,29.82,South,180,7.0,10.0,75,0.00,,,0.00,Wunderground v.1.15,2013-05-22 17:31:00,
2013-05-22 13:37:00,80.0,71.0,29.82,SSW,202,8.0,23.0,74,0.00,,,0.00,Wunderground v.1.15,2013-05-22 17:37:00,
2013-05-22 13:42:00,80.6,70.7,29.82,SW,218,9.0,23.0,72,0.00,,,0.00,Wunderground v.1.15,2013-05-22 17:42:00,
2013-05-22 13:48:00,79.7,69.9,29.82,SSE,163,10.0,23.0,72,0.00,,,0.00,Wunderground v.1.15,2013-05-22 17:48:00,
2013-05-22 13:54:00,78.8,69.0,29.81,SW,226,8.0,23.0,72,0.00,,,0.00,Wunderground v.1.15,2013-05-22 17:54:00,
2013-05-22 14:00:00,76.9,68.8,29.81,SSE,163,8.0,8.0,76,0.00,,,0.00,Wunderground v.1.15,2013-05-22 18:00:00,
2013-05-22 14:06:00,75.6,68.6,29.82,South,173,8.0,23.0,79,0.00,,,0.00,Wunderground v.1.15,2013-05-22 18:06:00,
2013-05-22 14:12:00,74.8,68.2,29.81,SW,219,8.0,23.0,80,0.00,,,0.00,Wunderground v.1.15,2013-05-22 18:12:00,
2013-05-22 14:18:00,74.0,68.2,29.83,WNW,288,6.0,23.0,82,0.00,,,0.00,Wunderground v.1.15,2013-05-22 18:18:00,
2013-05-22 14:23:00,73.1,68.0,29.84,NNW,327,5.0,23.0,84,0.00,,,0.01,Wunderground v.1.15,2013-05-22 18:23:00,
2013-05-22 14:29:00,71.6,66.8,29.88,North,355,8.0,23.0,85,0.38,,,0.03,Wunderground v.1.15,2013-05-22 18:29:00,
2013-05-22 14:35:00,68.9,63.9,29.88,WNW,282,11.0,23.0,84,0.11,,,0.04,Wunderground v.1.15,2013-05-22 18:35:00,
2013-05-22 14:41:00,67.4,63.1,29.88,SW,230,9.0,23.0,86,0.07,,,0.05,Wunderground v.1.15,2013-05-22 18:41:00,
2013-05-22 14:46:00,67.0,63.3,29.87,WNW,282,7.0,23.0,88,0.09,,,0.06,Wunderground v.1.15,2013-05-22 18:46:00,
2013-05-22 14:51:00,66.8,63.1,29.86,NNW,335,5.0,23.0,88,0.16,,,0.07,Wunderground v.1.15,2013-05-22 18:51:00,
2013-05-22 14:57:00,66.7,63.4,29.87,NNW,335,2.0,23.0,89,0.07,,,0.07,Wunderground v.1.15,2013-05-22 18:57:00,
2013-05-22 15:03:00,66.5,63.5,29.88,East,92,1.0,23.0,90,0.18,,,0.09,Wunderground v.1.15,2013-05-22 19:03:00,
2013-05-22 15:09:00,66.3,63.6,29.88,East,93,1.0,23.0,91,0.17,,,0.11,Wunderground v.1.15,2013-05-22 19:09:00,
2013-05-22 15:15:00,66.1,63.7,29.88,East,93,0.0,23.0,92,0.13,,,0.12,Wunderground v.1.15,2013-05-22 19:15:00,
2013-05-22 15:21:00,66.0,63.6,29.87,East,93,0.0,23.0,92,0.12,,,0.13,Wunderground v.1.15,2013-05-22 19:21:00,
2013-05-22 15:27:00,66.3,64.5,29.86,East,93,0.0,23.0,94,0.06,,,0.13,Wunderground v.1.15,2013-05-22 19:27:00,
2013-05-22 15:32:00,66.6,64.8,29.86,East,93,0.0,23.0,94,0.04,,,0.13,Wunderground v.1.15,2013-05-22 19:32:00,
2013-05-22 15:38:00,67.1,65.6,29.86,East,93,0.0,23.0,95,0.00,,,0.13,Wunderground v.1.15,2013-05-22 19:38:00,
2013-05-22 15:44:00,67.3,65.5,29.86,East,93,0.0,23.0,94,0.00,,,0.13,Wunderground v.1.15,2013-05-22 19:44:00,
2013-05-22 15:49:00,67.5,66.0,29.86,East,93,0.0,23.0,95,0.00,,,0.13,Wunderground v.1.15,2013-05-22 19:49:00,
2013-05-22 15:55:00,68.1,66.6,29.86,East,93,0.0,23.0,95,0.00,,,0.13,Wunderground v.1.15,2013-05-22 19:55:00,
2013-05-22 16:00:00,68.7,67.2,29.86,East,93,0.0,23.0,95,0.00,,,0.13,Wunderground v.1.15,2013-05-22 20:00:00,
2013-05-22 16:06:00,69.5,68.3,29.85,East,93,0.0,23.0,96,0.00,,,0.13,Wunderground v.1.15,2013-05-22 20:06:00,
2013-05-22 16:12:00,70.7,69.5,29.85,East,93,0.0,23.0,96,0.00,,,0.13,Wunderground v.1.15,2013-05-22 20:12:00,
2013-05-22 16:17:00,71.5,69.7,29.84,East,93,0.0,23.0,94,0.00,,,0.13,Wunderground v.1.15,2013-05-22 20:17:00,
2013-05-22 16:23:00,72.3,69.8,29.84,NE,40,0.0,23.0,92,0.00,,,0.13,Wunderground v.1.15,2013-05-22 20:23:00,
2013-05-22 16:29:00,72.8,70.0,29.84,NE,39,1.0,23.0,91,0.00,,,0.13,Wunderground v.1.15,2013-05-22 20:29:00,
2013-05-22 16:35:00,73.8,70.0,29.83,NE,38,1.0,23.0,88,0.00,,,0.13,Wunderground v.1.15,2013-05-22 20:35:00,
2013-05-22 16:41:00,74.8,70.3,29.83,ESE,107,1.0,3.0,86,0.00,,,0.13,Wunderground v.1.15,2013-05-22 20:41:00,
2013-05-22 16:46:00,75.5,70.0,29.82,SSE,157,3.0,23.0,83,0.00,,,0.13,Wunderground v.1.15,2013-05-22 20:46:00,
2013-05-22 16:52:00,76.4,71.2,29.82,ESE,119,2.0,23.0,84,0.00,,,0.13,Wunderground v.1.15,2013-05-22 20:52:00,
2013-05-22 16:58:00,77.1,70.8,29.82,East,92,0.0,23.0,81,0.00,,,0.13,Wunderground v.1.15,2013-05-22 20:58:00,
2013-05-22 17:04:00,78.2,71.5,29.83,WNW,298,0.0,23.0,80,0.00,,,0.13,Wunderground v.1.15,2013-05-22 21:04:00,
2013-05-22 17:10:00,78.7,70.5,29.82,SSW,201,1.0,1.0,76,0.00,,,0.13,Wunderground v.1.15,2013-05-22 21:10:00,
2013-05-22 17:16:00,78.5,70.3,29.82,SW,217,2.0,23.0,76,0.00,,,0.13,Wunderground v.1.15,2013-05-22 21:16:00,
2013-05-22 17:22:00,78.7,70.5,29.82,SW,225,2.0,23.0,76,0.00,,,0.13,Wunderground v.1.15,2013-05-22 21:22:00,
2013-05-22 17:27:00,78.9,70.7,29.82,SSW,193,1.0,23.0,76,0.00,,,0.13,Wunderground v.1.15,2013-05-22 21:27:00,
2013-05-22 17:33:00,78.7,70.5,29.81,SW,233,3.0,23.0,76,0.00,,,0.13,Wunderground v.1.15,2013-05-22 21:33:00,
2013-05-22 17:39:00,78.7,70.5,29.81,South,186,2.0,23.0,76,0.00,,,0.13,Wunderground v.1.15,2013-05-22 21:39:00,
2013-05-22 17:45:00,78.7,70.5,29.81,SSW,197,2.0,23.0,76,0.00,,,0.13,Wunderground v.1.15,2013-05-22 21:45:00,
2013-05-22 17:51:00,78.8,70.6,29.81,SSW,204,2.0,4.0,76,0.00,,,0.13,Wunderground v.1.15,2013-05-22 21:51:00,
2013-05-22 17:57:00,78.7,70.5,29.81,SSW,202,4.0,23.0,76,0.00,,,0.13,Wunderground v.1.15,2013-05-22 21:57:00,
2013-05-22 18:02:00,78.5,70.3,29.81,SSW,202,4.0,23.0,76,0.00,,,0.13,Wunderground v.1.15,2013-05-22 22:02:00,
2013-05-22 18:08:00,78.7,70.9,29.81,SW,216,3.0,23.0,77,0.00,,,0.13,Wunderground v.1.15,2013-05-22 22:08:00,
2013-05-22 18:14:00,78.7,70.5,29.81,SSW,192,3.0,23.0,76,0.00,,,0.13,Wunderground v.1.15,2013-05-22 22:14:00,
2013-05-22 18:20:00,78.4,71.0,29.80,SSW,209,4.0,23.0,78,0.00,,,0.13,Wunderground v.1.15,2013-05-22 22:20:00,
2013-05-22 18:25:00,77.8,71.1,29.81,SSW,196,6.0,23.0,80,0.00,,,0.13,Wunderground v.1.15,2013-05-22 22:25:00,
2013-05-22 18:31:00,77.2,70.9,29.81,SSW,206,6.0,23.0,81,0.00,,,0.13,Wunderground v.1.15,2013-05-22 22:31:00,
2013-05-22 18:37:00,76.7,70.8,29.81,SSW,199,5.0,23.0,82,0.00,,,0.13,Wunderground v.1.15,2013-05-22 22:37:00,
2013-05-22 18:42:00,76.4,70.5,29.82,SW,219,5.0,23.0,82,0.00,,,0.13,Wunderground v.1.15,2013-05-22 22:42:00,
2013-05-22 18:48:00,76.0,70.5,29.82,SW,230,4.0,23.0,83,0.00,,,0.13,Wunderground v.1.15,2013-05-22 22:48:00,
2013-05-22 18:54:00,75.6,70.4,29.82,SSW,192,3.0,23.0,84,0.00,,,0.13,Wunderground v.1.15,2013-05-22 22:54:00,
2013-05-22 19:00:00,75.2,70.0,29.82,SW,221,2.0,2.0,84,0.00,,,0.13,Wunderground v.1.15,2013-05-22 23:00:00,
2013-05-22 19:05:00,74.7,69.9,29.82,SW,215,3.0,23.0,85,0.00,,,0.13,Wunderground v.1.15,2013-05-22 23:05:00,
2013-05-22 19:11:00,74.3,69.8,29.82,South,177,4.0,5.0,86,0.00,,,0.13,Wunderground v.1.15,2013-05-22 23:11:00,
2013-05-22 19:17:00,74.0,69.5,29.82,SSW,199,4.0,23.0,86,0.00,,,0.13,Wunderground v.1.15,2013-05-22 23:17:00,
2013-05-22 19:23:00,73.6,69.5,29.82,WSW,237,6.0,23.0,87,0.00,,,0.13,Wunderground v.1.15,2013-05-22 23:23:00,
2013-05-22 19:28:00,73.4,69.6,29.82,SW,215,6.0,23.0,88,0.00,,,0.13,Wunderground v.1.15,2013-05-22 23:28:00,
2013-05-22 19:34:00,73.1,69.3,29.82,SW,215,5.0,23.0,88,0.00,,,0.13,Wunderground v.1.15,2013-05-22 23:34:00,
2013-05-22 19:40:00,72.9,69.1,29.82,SSE,157,4.0,4.0,88,0.00,,,0.13,Wunderground v.1.15,2013-05-22 23:40:00,
2013-05-22 19:46:00,72.7,69.3,29.82,SSW,198,3.0,23.0,89,0.00,,,0.13,Wunderground v.1.15,2013-05-22 23:46:00,
2013-05-22 19:52:00,72.5,69.1,29.82,SW,221,4.0,23.0,89,0.00,,,0.13,Wunderground v.1.15,2013-05-22 23:52:00,
2013-05-22 19:58:00,72.4,69.0,29.82,SW,215,4.0,23.0,89,0.00,,,0.13,Wunderground v.1.15,2013-05-22 23:58:00,
2013-05-22 20:04:00,72.2,68.8,29.82,SSW,194,4.0,23.0,89,0.00,,,0.13,Wunderground v.1.15,2013-05-23 00:04:00,
2013-05-22 20:10:00,72.1,69.0,29.82,WSW,246,4.0,23.0,90,0.00,,,0.13,Wunderground v.1.15,2013-05-23 00:10:00,
2013-05-22 20:15:00,72.0,68.9,29.82,SSW,203,3.0,23.0,90,0.00,,,0.13,Wunderground v.1.15,2013-05-23 00:15:00,
2013-05-22 20:21:00,71.8,68.7,29.82,SSW,202,3.0,23.0,90,0.00,,,0.13,Wunderground v.1.15,2013-05-23 00:21:00,
2013-05-22 20:27:00,71.7,68.6,29.82,SSW,210,3.0,23.0,90,0.00,,,0.13,Wunderground v.1.15,2013-05-23 00:27:00,
2013-05-22 20:32:00,71.5,68.4,29.82,SSW,208,2.0,23.0,90,0.00,,,0.13,Wunderground v.1.15,2013-05-23 00:32:00,
2013-05-22 20:38:00,71.4,68.3,29.82,SW,225,1.0,23.0,90,0.00,,,0.13,Wunderground v.1.15,2013-05-23 00:38:00,
2013-05-22 20:44:00,71.3,68.5,29.82,South,169,3.0,23.0,91,0.00,,,0.13,Wunderground v.1.15,2013-05-23 00:44:00,
2013-05-22 20:50:00,71.1,68.3,29.82,SW,223,1.0,1.0,91,0.00,,,0.13,Wunderground v.1.15,2013-05-23 00:50:00,
2013-05-22 20:56:00,71.0,68.2,29.83,South,172,0.0,23.0,91,0.00,,,0.13,Wunderground v.1.15,2013-05-23 00:56:00,
2013-05-22 21:01:00,70.9,68.1,29.83,ESE,115,0.0,23.0,91,0.00,,,0.13,Wunderground v.1.15,2013-05-23 01:01:00,
2013-05-22 21:07:00,70.8,68.0,29.83,SSE,167,0.0,23.0,91,0.00,,,0.13,Wunderground v.1.15,2013-05-23 01:07:00,
2013-05-22 21:13:00,70.6,67.8,29.83,SE,127,0.0,23.0,91,0.00,,,0.13,Wunderground v.1.15,2013-05-23 01:13:00,
2013-05-22 21:19:00,70.5,68.1,29.83,SE,128,0.0,23.0,92,0.00,,,0.13,Wunderground v.1.15,2013-05-23 01:19:00,
2013-05-22 21:24:00,70.4,68.0,29.83,East,88,0.0,23.0,92,0.00,,,0.13,Wunderground v.1.15,2013-05-23 01:24:00,
2013-05-22 21:30:00,70.3,67.9,29.83,ENE,57,1.0,1.0,92,0.00,,,0.13,Wunderground v.1.15,2013-05-23 01:30:00,
2013-05-22 21:36:00,70.2,67.8,29.83,ENE,57,0.0,23.0,92,0.00,,,0.13,Wunderground v.1.15,2013-05-23 01:36:00,
2013-05-22 21:42:00,70.0,67.6,29.83,ENE,57,0.0,23.0,92,0.00,,,0.13,Wunderground v.1.15,2013-05-23 01:42:00,
2013-05-22 21:48:00,69.9,67.5,29.82,ENE,57,0.0,23.0,92,0.00,,,0.13,Wunderground v.1.15,2013-05-23 01:48:00,
2013-05-22 21:54:00,69.8,67.4,29.82,ENE,59,0.0,23.0,92,0.00,,,0.13,Wunderground v.1.15,2013-05-23 01:54:00,
2013-05-22 22:00:00,69.9,67.8,29.82,East,86,0.0,23.0,93,0.00,,,0.13,Wunderground v.1.15,2013-05-23 02:00:00,
2013-05-22 22:05:00,70.0,67.9,29.82,ESE,114,1.0,23.0,93,0.00,,,0.13,Wunderground v.1.15,2013-05-23 02:05:00,
2013-05-22 22:11:00,69.9,67.8,29.82,ESE,114,0.0,23.0,93,0.00,,,0.13,Wunderground v.1.15,2013-05-23 02:11:00,
2013-05-22 22:17:00,69.8,67.4,29.82,East,86,0.0,23.0,92,0.00,,,0.13,Wunderground v.1.15,2013-05-23 02:17:00,
2013-05-22 22:23:00,69.8,67.7,29.82,ESE,122,1.0,23.0,93,0.00,,,0.13,Wunderground v.1.15,2013-05-23 02:23:00,
2013-05-22 22:28:00,70.0,67.9,29.82,SE,126,1.0,23.0,93,0.00,,,0.13,Wunderground v.1.15,2013-05-23 02:28:00,
2013-05-22 22:34:00,70.2,68.1,29.82,ESE,122,2.0,23.0,93,0.00,,,0.13,Wunderground v.1.15,2013-05-23 02:34:00,
2013-05-22 22:40:00,70.3,67.9,29.82,East,98,1.0,1.0,92,0.00,,,0.13,Wunderground v.1.15,2013-05-23 02:40:00,
2013-05-22 22:46:00,70.5,68.1,29.81,ESE,121,2.0,23.0,92,0.00,,,0.13,Wunderground v.1.15,2013-05-23 02:46:00,
2013-05-22 22:52:00,70.7,68.3,29.81,East,82,2.0,23.0,92,0.00,,,0.13,Wunderground v.1.15,2013-05-23 02:52:00,
2013-05-22 22:58:00,70.9,68.5,29.81,ESE,115,2.0,23.0,92,0.00,,,0.13,Wunderground v.1.15,2013-05-23 02:58:00,
2013-05-22 23:04:00,71.1,68.3,29.81,East,90,2.0,23.0,91,0.00,,,0.13,Wunderground v.1.15,2013-05-23 03:04:00,
2013-05-22 23:09:00,71.3,68.2,29.81,East,87,1.0,23.0,90,0.00,,,0.13,Wunderground v.1.15,2013-05-23 03:09:00,
2013-05-22 23:15:00,71.4,68.3,29.81,East,96,1.0,23.0,90,0.00,,,0.13,Wunderground v.1.15,2013-05-23 03:15:00,
2013-05-22 23:21:00,71.6,68.5,29.81,ESE,105,1.0,5.0,90,0.00,,,0.13,Wunderground v.1.15,2013-05-23 03:21:00,
2013-05-22 23:27:00,71.7,68.3,29.80,ESE,107,1.0,23.0,89,0.00,,,0.13,Wunderground v.1.15,2013-05-23 03:27:00,
2013-05-22 23:32:00,71.7,68.3,29.80,ESE,123,0.0,23.0,89,0.00,,,0.13,Wunderground v.1.15,2013-05-23 03:32:00,
2013-05-22 23:38:00,71.7,68.3,29.81,ESE,117,1.0,23.0,89,0.00,,,0.13,Wunderground v.1.15,2013-05-23 03:38:00,
2013-05-22 23:44:00,71.8,68.4,29.81,SSE,148,1.0,23.0,89,0.00,,,0.13,Wunderground v.1.15,2013-05-23 03:44:00,
2013-05-22 23:50:00,72.1,68.3,29.81,SSW,207,1.0,23.0,88,0.00,,,0.13,Wunderground v.1.15,2013-05-23 03:50:00,
2013-05-22 23:56:00,72.6,68.2,29.81,West,270,2.0,23.0,86,0.00,,,0.13,Wunderground v.1.15,2013-05-23 03:56:00,